createdAt,value
2018-06-11T00:02:27.665Z,21.65
2018-06-11T00:04:56.401Z,21.52
2018-06-11T00:07:24.973Z,21.53
2018-06-11T00:09:53.585Z,21.28
2018-06-11T00:12:22.224Z,21.13
2018-06-11T00:14:50.896Z,21.02
2018-06-11T00:17:19.479Z,21.02
2018-06-11T00:19:48.061Z,20.81
2018-06-11T00:22:16.791Z,20.86
2018-06-11T00:24:45.376Z,20.84
2018-06-11T00:27:14.072Z,20.80
2018-06-11T00:29:42.817Z,20.58
2018-06-11T00:32:11.365Z,20.52
2018-06-11T00:34:40.096Z,20.57
2018-06-11T00:37:08.657Z,20.41
2018-06-11T00:39:37.433Z,20.34
2018-06-11T00:42:06.049Z,20.40
2018-06-11T00:44:34.680Z,20.46
2018-06-11T00:47:03.258Z,20.58
2018-06-11T00:49:31.833Z,20.64
2018-06-11T00:52:00.387Z,20.60
2018-06-11T00:54:28.954Z,20.73
2018-06-11T00:56:57.491Z,20.77
2018-06-11T00:59:26.120Z,20.64
2018-06-11T01:01:54.655Z,20.65
2018-06-11T01:04:23.266Z,20.69
2018-06-11T01:06:51.849Z,20.70
2018-06-11T01:09:20.577Z,20.83
2018-06-11T01:11:49.130Z,20.78
2018-06-11T01:14:18.161Z,20.74
2018-06-11T01:16:46.698Z,20.88
2018-06-11T01:19:15.264Z,20.96
2018-06-11T01:21:43.881Z,21.02
2018-06-11T01:24:12.492Z,21.14
2018-06-11T01:26:41.073Z,21.17
2018-06-11T01:29:10.768Z,21.09
2018-06-11T01:31:39.377Z,21.07
2018-06-11T01:34:07.996Z,20.90
2018-06-11T01:36:36.607Z,20.99
2018-06-11T01:39:07.147Z,21.00
2018-06-11T01:41:35.992Z,21.05
2018-06-11T01:44:04.590Z,21.05
2018-06-11T01:46:33.147Z,20.76
2018-06-11T01:49:01.780Z,20.86
2018-06-11T01:51:30.408Z,20.91
2018-06-11T01:53:58.952Z,20.87
2018-06-11T01:56:27.538Z,20.80
2018-06-11T01:58:56.033Z,20.58
2018-06-11T02:01:24.958Z,20.48
2018-06-11T02:03:53.512Z,20.26
2018-06-11T02:06:22.048Z,20.02
2018-06-11T02:08:50.674Z,19.94
2018-06-11T02:11:19.208Z,19.78
2018-06-11T02:13:47.817Z,19.75
2018-06-11T02:16:16.353Z,19.64
2018-06-11T02:18:44.930Z,19.56
2018-06-11T02:21:13.448Z,19.54
2018-06-11T02:23:42.057Z,19.50
2018-06-11T02:26:11.013Z,19.81
2018-06-11T02:28:39.584Z,19.97
2018-06-11T02:31:08.757Z,20.00
2018-06-11T02:33:37.874Z,19.85
2018-06-11T02:36:06.516Z,19.87
2018-06-11T02:38:35.114Z,19.68
2018-06-11T02:41:03.685Z,19.53
2018-06-11T02:43:32.313Z,19.62
2018-06-11T02:46:01.012Z,19.48
2018-06-11T02:48:30.470Z,19.35
2018-06-11T02:50:59.189Z,19.15
2018-06-11T02:53:27.947Z,19.12
2018-06-11T02:55:56.703Z,18.87
2018-06-11T02:58:25.528Z,18.96
2018-06-11T03:00:54.265Z,18.95
2018-06-11T03:03:22.818Z,19.05
2018-06-11T03:05:51.441Z,19.27
2018-06-11T03:08:19.981Z,19.19
2018-06-11T03:10:48.709Z,19.09
2018-06-11T03:13:17.499Z,18.93
2018-06-11T03:15:46.050Z,19.05
2018-06-11T03:18:14.621Z,19.12
2018-06-11T03:20:43.488Z,18.99
2018-06-11T03:23:12.086Z,18.92
2018-06-11T03:25:41.092Z,19.00
2018-06-11T03:28:09.711Z,18.91
2018-06-11T03:30:38.301Z,18.87
2018-06-11T03:33:07.390Z,18.81
2018-06-11T03:35:36.953Z,18.73
2018-06-11T03:38:06.915Z,18.65
2018-06-11T03:40:35.700Z,18.49
2018-06-11T03:43:04.590Z,18.48
2018-06-11T03:45:33.204Z,18.62
2018-06-11T03:48:01.877Z,18.68
2018-06-11T03:50:30.610Z,18.79
2018-06-11T03:52:59.272Z,18.79
2018-06-11T03:55:27.909Z,18.80
2018-06-11T03:57:56.510Z,18.79
2018-06-11T04:00:25.138Z,18.54
2018-06-11T04:02:54.261Z,18.59
2018-06-11T04:05:23.162Z,18.58
2018-06-11T04:07:53.077Z,18.59
2018-06-11T04:10:22.257Z,18.56
2018-06-11T04:12:51.302Z,18.48
2018-06-11T04:15:19.915Z,18.59
2018-06-11T04:17:48.475Z,18.76
2018-06-11T04:20:17.007Z,19.00
2018-06-11T04:22:45.821Z,19.11
2018-06-11T04:25:14.361Z,19.31
2018-06-11T04:27:43.232Z,19.15
2018-06-11T04:30:11.875Z,19.07
2018-06-11T04:32:40.454Z,19.02
2018-06-11T04:35:09.108Z,19.17
2018-06-11T04:37:37.659Z,19.11
2018-06-11T04:40:06.220Z,19.25
2018-06-11T04:42:34.804Z,19.40
2018-06-11T04:45:03.457Z,19.46
2018-06-11T04:47:32.047Z,19.58
2018-06-11T04:50:00.809Z,19.67
2018-06-11T04:52:29.326Z,19.87
2018-06-11T04:54:57.916Z,19.82
2018-06-11T04:57:26.454Z,19.92
2018-06-11T04:59:55.039Z,19.97
2018-06-11T05:02:23.632Z,19.98
2018-06-11T05:04:52.195Z,20.05
2018-06-11T05:07:20.780Z,20.24
2018-06-11T05:09:49.369Z,20.36
2018-06-11T05:12:17.927Z,20.20
2018-06-11T05:14:46.781Z,20.09
2018-06-11T05:17:15.417Z,19.86
2018-06-11T05:19:43.976Z,19.82
2018-06-11T05:22:12.542Z,19.91
2018-06-11T05:24:41.160Z,19.99
2018-06-11T05:27:09.804Z,20.03
2018-06-11T05:29:38.782Z,19.94
2018-06-11T05:32:07.371Z,19.84
2018-06-11T05:34:35.954Z,19.85
2018-06-11T05:37:04.604Z,19.98
2018-06-11T05:39:33.144Z,19.98
2018-06-11T05:42:02.197Z,20.24
2018-06-11T05:44:30.739Z,20.48
2018-06-11T05:46:59.313Z,20.33
2018-06-11T05:49:27.980Z,20.39
2018-06-11T05:51:56.573Z,20.35
2018-06-11T05:54:25.448Z,20.09
2018-06-11T05:56:54.094Z,20.01
2018-06-11T05:59:22.778Z,20.45
2018-06-11T06:01:51.324Z,20.81
2018-06-11T06:04:19.941Z,21.09
2018-06-11T06:06:48.576Z,21.43
2018-06-11T06:09:17.389Z,21.63
2018-06-11T06:11:45.941Z,21.95
2018-06-11T06:14:14.556Z,21.92
2018-06-11T06:16:43.088Z,21.66
2018-06-11T06:19:11.728Z,21.72
2018-06-11T06:21:40.680Z,21.61
2018-06-11T06:24:09.372Z,21.85
2018-06-11T06:26:37.920Z,21.67
2018-06-11T06:29:06.564Z,21.78
2018-06-11T06:31:35.156Z,21.63
2018-06-11T06:34:03.840Z,21.56
2018-06-11T06:36:32.328Z,21.59
2018-06-11T06:39:00.967Z,21.92
2018-06-11T06:41:29.503Z,22.12
2018-06-11T06:43:58.044Z,22.26
2018-06-11T06:46:26.652Z,22.36
2018-06-11T06:48:55.209Z,22.32
2018-06-11T06:51:23.860Z,22.14
2018-06-11T06:53:52.438Z,22.12
2018-06-11T06:56:21.024Z,21.94
2018-06-11T06:58:49.673Z,21.47
2018-06-11T07:01:18.259Z,21.20
2018-06-11T07:03:46.816Z,20.79
2018-06-11T07:06:15.451Z,20.66
2018-06-11T07:08:44.019Z,20.51
2018-06-11T07:11:12.677Z,20.45
2018-06-11T07:13:41.312Z,20.51
2018-06-11T07:16:09.887Z,20.72
2018-06-11T07:18:38.449Z,20.88
2018-06-11T07:21:07.041Z,20.92
2018-06-11T07:23:35.662Z,20.84
2018-06-11T07:26:04.222Z,20.95
2018-06-11T07:28:32.946Z,21.02
2018-06-11T07:31:03.232Z,21.18
2018-06-11T07:33:31.825Z,21.10
2018-06-11T07:36:00.353Z,21.25
2018-06-11T07:38:28.957Z,21.31
2018-06-11T07:40:57.742Z,21.49
2018-06-11T07:43:26.253Z,21.53
2018-06-11T07:45:55.102Z,21.49
2018-06-11T07:48:23.692Z,21.47
2018-06-11T07:50:52.590Z,21.27
2018-06-11T07:53:21.188Z,21.25
2018-06-11T07:55:49.725Z,21.16
2018-06-11T07:58:18.324Z,21.35
2018-06-11T08:00:46.908Z,21.34
2018-06-11T08:03:15.705Z,21.39
2018-06-11T08:05:44.260Z,21.29
2018-06-11T08:08:12.842Z,21.58
2018-06-11T08:10:41.463Z,21.51
2018-06-11T08:13:10.104Z,21.53
2018-06-11T08:15:38.684Z,21.90
2018-06-11T08:18:07.325Z,22.23
2018-06-11T08:20:35.900Z,22.51
2018-06-11T08:23:04.760Z,22.57
2018-06-11T08:25:33.376Z,22.61
2018-06-11T08:28:02.128Z,22.53
2018-06-11T08:30:30.805Z,22.54
2018-06-11T08:32:59.380Z,22.54
2018-06-11T08:35:27.963Z,22.56
2018-06-11T08:37:56.507Z,22.71
2018-06-11T08:40:25.081Z,22.79
2018-06-11T08:42:53.609Z,22.85
2018-06-11T08:45:22.300Z,22.72
2018-06-11T08:47:50.982Z,22.72
2018-06-11T08:50:19.600Z,22.70
2018-06-11T08:52:48.400Z,22.62
2018-06-11T08:55:16.997Z,22.49
2018-06-11T08:57:45.562Z,22.37
2018-06-11T09:00:14.240Z,22.32
2018-06-11T09:02:42.928Z,22.45
2018-06-11T09:05:11.621Z,22.59
2018-06-11T09:07:40.220Z,22.73
2018-06-11T09:10:08.840Z,22.75
2018-06-11T09:12:37.487Z,22.86
2018-06-11T09:15:06.060Z,22.95
2018-06-11T09:17:34.633Z,23.06
2018-06-11T09:20:03.841Z,22.96
2018-06-11T09:22:32.439Z,23.05
2018-06-11T09:25:01.146Z,22.89
2018-06-11T09:27:29.696Z,23.15
2018-06-11T09:29:58.344Z,23.37
2018-06-11T09:32:27.017Z,23.41
2018-06-11T09:34:55.556Z,23.64
2018-06-11T09:37:24.155Z,23.62
2018-06-11T09:39:52.724Z,23.55
2018-06-11T09:42:21.297Z,23.61
2018-06-11T09:44:49.868Z,23.82
2018-06-11T09:47:18.497Z,23.90
2018-06-11T09:49:47.056Z,24.25
2018-06-11T09:52:15.632Z,24.38
2018-06-11T09:54:44.244Z,24.50
2018-06-11T09:57:12.846Z,24.30
2018-06-11T09:59:41.452Z,23.99
2018-06-11T10:02:10.097Z,24.11
2018-06-11T10:04:38.692Z,24.08
2018-06-11T10:07:07.248Z,23.92
2018-06-11T10:09:35.833Z,24.08
2018-06-11T10:12:04.440Z,24.49
2018-06-11T10:14:33.048Z,24.63
2018-06-11T10:17:01.636Z,24.36
2018-06-11T10:19:30.280Z,24.13
2018-06-11T10:21:58.953Z,24.16
2018-06-11T10:24:27.655Z,23.90
2018-06-11T10:26:56.189Z,24.19
2018-06-11T10:29:24.959Z,24.28
2018-06-11T10:31:53.573Z,24.57
2018-06-11T10:34:22.221Z,24.95
2018-06-11T10:36:50.900Z,25.11
2018-06-11T10:39:19.579Z,25.18
2018-06-11T10:41:48.177Z,25.17
2018-06-11T10:44:16.852Z,25.09
2018-06-11T10:46:45.492Z,24.77
2018-06-11T10:49:14.056Z,24.88
2018-06-11T10:51:42.668Z,25.24
2018-06-11T10:54:11.254Z,25.20
2018-06-11T10:56:39.877Z,25.16
2018-06-11T10:59:08.453Z,25.27
2018-06-11T11:01:37.052Z,25.28
2018-06-11T11:04:05.664Z,25.34
2018-06-11T11:06:34.293Z,25.29
2018-06-11T11:09:02.893Z,25.55
2018-06-11T11:11:31.473Z,25.60
2018-06-11T11:14:00.026Z,25.84
2018-06-11T11:16:28.661Z,26.14
2018-06-11T11:18:57.297Z,26.21
2018-06-11T11:21:25.911Z,26.38
2018-06-11T11:23:54.536Z,26.53
2018-06-11T11:26:23.097Z,26.53
2018-06-11T11:28:51.676Z,26.52
2018-06-11T11:31:20.326Z,26.24
2018-06-11T11:33:49.013Z,26.17
2018-06-11T11:36:17.641Z,26.03
2018-06-11T11:38:46.332Z,26.38
2018-06-11T11:41:14.989Z,26.55
2018-06-11T11:43:43.582Z,26.77
2018-06-11T11:46:12.134Z,26.79
2018-06-11T11:48:40.763Z,26.67
2018-06-11T11:51:09.385Z,26.99
2018-06-11T11:53:37.920Z,26.36
2018-06-11T11:56:06.481Z,26.54
2018-06-11T11:58:35.260Z,26.13
2018-06-11T12:01:03.847Z,26.50
2018-06-11T12:03:32.466Z,26.87
2018-06-11T12:06:01.076Z,27.16
2018-06-11T12:08:29.702Z,27.35
2018-06-11T12:10:58.404Z,27.48
2018-06-11T12:13:27.039Z,27.37
2018-06-11T12:15:55.807Z,27.30
2018-06-11T12:18:24.369Z,27.60
2018-06-11T12:20:53.114Z,27.51
2018-06-11T12:23:21.666Z,27.84
2018-06-11T12:25:50.236Z,27.89
2018-06-11T12:28:18.824Z,27.77
2018-06-11T12:30:47.434Z,28.30
2018-06-11T12:33:16.016Z,28.40
2018-06-11T12:35:44.723Z,28.33
2018-06-11T12:38:13.411Z,28.05
2018-06-11T12:40:42.032Z,27.84
2018-06-11T12:43:10.627Z,27.99
2018-06-11T12:45:39.309Z,28.05
2018-06-11T12:48:07.959Z,28.02
2018-06-11T12:50:36.593Z,27.80
2018-06-11T12:53:05.380Z,27.76
2018-06-11T12:55:34.033Z,27.62
2018-06-11T12:58:02.647Z,27.53
2018-06-11T13:00:31.216Z,27.73
2018-06-11T13:02:59.861Z,27.72
2018-06-11T13:05:28.401Z,27.65
2018-06-11T13:07:57.071Z,27.69
2018-06-11T13:10:25.634Z,27.56
2018-06-11T13:12:54.299Z,27.88
2018-06-11T13:15:22.973Z,28.56
2018-06-11T13:17:51.544Z,28.47
2018-06-11T13:20:20.144Z,28.41
2018-06-11T13:22:48.921Z,28.15
2018-06-11T13:25:17.504Z,28.32
2018-06-11T13:27:46.116Z,28.16
2018-06-11T13:30:14.872Z,27.97
2018-06-11T13:32:43.468Z,28.04
2018-06-11T13:35:11.984Z,27.69
2018-06-11T13:37:42.463Z,27.60
2018-06-11T13:40:11.189Z,27.50
2018-06-11T13:42:39.896Z,27.62
2018-06-11T13:45:08.552Z,27.20
2018-06-11T13:47:37.213Z,27.22
2018-06-11T13:50:05.885Z,27.16
2018-06-11T13:52:34.474Z,26.92
2018-06-11T13:55:03.272Z,26.58
2018-06-11T13:57:31.920Z,26.55
2018-06-11T14:00:00.753Z,26.58
2018-06-11T14:02:29.457Z,26.68
2018-06-11T14:04:58.135Z,26.68
2018-06-11T14:07:26.788Z,26.48
2018-06-11T14:09:55.421Z,26.44
2018-06-11T14:12:23.965Z,26.28
2018-06-11T14:14:52.787Z,26.28
2018-06-11T14:17:21.408Z,26.22
2018-06-11T14:19:50.065Z,26.04
2018-06-11T14:22:18.742Z,25.96
2018-06-11T14:24:47.386Z,25.74
2018-06-11T14:27:15.957Z,25.58
2018-06-11T14:29:45.386Z,25.73
2018-06-11T14:32:14.001Z,25.70
2018-06-11T14:34:42.604Z,25.62
2018-06-11T14:37:11.242Z,25.54
2018-06-11T14:39:40.381Z,25.51
2018-06-11T14:42:09.053Z,25.45
2018-06-11T14:44:37.633Z,25.50
2018-06-11T14:47:06.405Z,25.38
2018-06-11T14:49:35.000Z,25.48
2018-06-11T14:52:03.691Z,25.33
2018-06-11T14:54:32.311Z,25.34
2018-06-11T14:57:01.410Z,25.29
2018-06-11T14:59:29.960Z,25.26
2018-06-11T15:01:58.657Z,25.27
2018-06-11T15:04:27.245Z,25.29
2018-06-11T15:06:55.867Z,25.21
2018-06-11T15:09:24.507Z,25.33
2018-06-11T15:11:53.136Z,25.28
2018-06-11T15:14:21.773Z,25.16
2018-06-11T15:16:50.397Z,25.16
2018-06-11T15:19:18.997Z,25.11
2018-06-11T15:21:47.792Z,25.29
2018-06-11T15:24:16.458Z,25.16
2018-06-11T15:26:45.033Z,25.24
2018-06-11T15:29:13.670Z,25.30
2018-06-11T15:31:42.289Z,25.25
2018-06-11T15:34:10.904Z,25.12
2018-06-11T15:36:39.517Z,25.09
2018-06-11T15:39:08.653Z,25.25
2018-06-11T15:41:37.318Z,25.18
2018-06-11T15:44:05.980Z,25.20
2018-06-11T15:46:34.569Z,25.12
2018-06-11T15:49:03.160Z,25.14
2018-06-11T15:51:32.019Z,25.24
2018-06-11T15:54:00.613Z,25.28
2018-06-11T15:56:29.273Z,25.41
2018-06-11T15:58:58.003Z,25.40
2018-06-11T16:01:26.606Z,24.95
2018-06-11T16:03:55.584Z,25.19
2018-06-11T16:06:24.240Z,25.19
2018-06-11T16:08:52.921Z,25.24
2018-06-11T16:11:21.584Z,25.34
2018-06-11T16:13:50.157Z,25.07
2018-06-11T16:16:18.781Z,25.04
2018-06-11T16:18:47.440Z,24.84
2018-06-11T16:21:16.197Z,24.94
2018-06-11T16:23:44.802Z,24.81
2018-06-11T16:26:13.418Z,24.93
2018-06-11T16:28:42.015Z,24.88
2018-06-11T16:31:10.612Z,24.81
2018-06-11T16:33:39.396Z,24.83
2018-06-11T16:36:08.067Z,24.82
2018-06-11T16:38:36.829Z,24.50
2018-06-11T16:41:05.530Z,24.39
2018-06-11T16:43:34.196Z,24.29
2018-06-11T16:46:02.801Z,24.32
2018-06-11T16:48:31.450Z,24.36
2018-06-11T16:51:00.128Z,24.18
2018-06-11T16:53:29.007Z,24.11
2018-06-11T16:55:57.749Z,24.04
2018-06-11T16:58:26.470Z,24.11
2018-06-11T17:00:55.037Z,23.99
2018-06-11T17:03:23.776Z,24.03
2018-06-11T17:05:52.456Z,23.93
2018-06-11T17:08:21.089Z,24.07
2018-06-11T17:10:49.744Z,24.19
2018-06-11T17:13:18.532Z,24.31
2018-06-11T17:15:47.146Z,24.12
2018-06-11T17:18:15.762Z,24.20
2018-06-11T17:20:44.389Z,24.31
2018-06-11T17:23:13.103Z,24.29
2018-06-11T17:25:41.751Z,24.24
2018-06-11T17:28:10.480Z,24.17
2018-06-11T17:30:39.099Z,24.23
2018-06-11T17:33:07.832Z,24.19
2018-06-11T17:35:36.436Z,24.30
2018-06-11T17:38:05.006Z,24.11
2018-06-11T17:40:33.571Z,24.09
2018-06-11T17:43:02.132Z,24.07
2018-06-11T17:45:30.770Z,24.09
2018-06-11T17:47:59.360Z,24.14
2018-06-11T17:50:28.065Z,24.18
2018-06-11T17:52:56.789Z,24.24
2018-06-11T17:55:25.973Z,24.29
2018-06-11T17:57:54.612Z,24.33
2018-06-11T18:00:23.184Z,24.35
2018-06-11T18:02:51.777Z,24.23
2018-06-11T18:05:20.421Z,24.13
2018-06-11T18:07:49.263Z,24.16
2018-06-11T18:10:18.046Z,24.06
2018-06-11T18:12:47.049Z,24.18
2018-06-11T18:15:15.657Z,24.11
2018-06-11T18:17:44.282Z,23.97
2018-06-11T18:20:12.849Z,23.94
2018-06-11T18:22:41.593Z,23.92
2018-06-11T18:25:10.254Z,23.99
2018-06-11T18:27:38.908Z,23.89
2018-06-11T18:30:07.542Z,23.85
2018-06-11T18:32:36.173Z,23.89
2018-06-11T18:35:04.794Z,24.00
2018-06-11T18:37:33.657Z,24.08
2018-06-11T18:40:02.266Z,24.13
2018-06-11T18:42:30.919Z,24.16
2018-06-11T18:44:59.502Z,24.03
2018-06-11T18:47:28.153Z,24.07
2018-06-11T18:49:56.946Z,24.11
2018-06-11T18:52:26.197Z,24.12
2018-06-11T18:54:54.777Z,23.91
2018-06-11T18:57:23.733Z,24.06
2018-06-11T18:59:52.298Z,23.82
2018-06-11T19:02:20.965Z,23.41
2018-06-11T19:04:49.609Z,23.52
2018-06-11T19:07:18.425Z,23.41
2018-06-11T19:09:47.092Z,23.73
2018-06-11T19:12:15.700Z,23.59
2018-06-11T19:14:44.369Z,23.61
2018-06-11T19:17:13.039Z,23.71
2018-06-11T19:19:41.615Z,23.75
2018-06-11T19:22:10.288Z,23.80
2018-06-11T19:24:39.014Z,23.75
2018-06-11T19:27:07.732Z,23.62
2018-06-11T19:29:36.483Z,23.72
2018-06-11T19:32:05.148Z,23.74
2018-06-11T19:34:33.781Z,23.68
2018-06-11T19:37:02.383Z,23.57
2018-06-11T19:39:31.069Z,23.50
2018-06-11T19:41:59.760Z,23.42
2018-06-11T19:44:28.540Z,23.21
2018-06-11T19:46:57.532Z,22.91
2018-06-11T19:49:26.118Z,22.81
2018-06-11T19:51:54.856Z,22.75
2018-06-11T19:54:23.433Z,22.70
2018-06-11T19:56:52.036Z,22.80
2018-06-11T19:59:20.708Z,22.95
2018-06-11T20:01:49.476Z,23.06
2018-06-11T20:04:18.066Z,23.16
2018-06-11T20:06:46.943Z,23.22
2018-06-11T20:09:15.687Z,23.37
2018-06-11T20:11:44.721Z,23.46
2018-06-11T20:14:13.270Z,23.51
2018-06-11T20:16:41.861Z,23.59
2018-06-11T20:19:10.465Z,23.63
2018-06-11T20:21:39.164Z,23.66
2018-06-11T20:24:07.785Z,23.71
2018-06-11T20:26:36.408Z,23.68
2018-06-11T20:29:05.016Z,23.45
2018-06-11T20:31:33.901Z,23.67
2018-06-11T20:34:02.604Z,23.62
2018-06-11T20:36:31.333Z,23.65
2018-06-11T20:39:00.015Z,23.62
2018-06-11T20:41:28.669Z,23.59
2018-06-11T20:43:57.352Z,23.61
2018-06-11T20:46:25.931Z,23.59
2018-06-11T20:48:54.804Z,23.66
2018-06-11T20:51:23.488Z,23.62
2018-06-11T20:53:52.084Z,23.60
2018-06-11T20:56:20.666Z,23.59
2018-06-11T20:58:49.397Z,23.67
2018-06-11T21:01:18.020Z,23.63
2018-06-11T21:03:46.693Z,23.57
2018-06-11T21:06:15.242Z,23.48
2018-06-11T21:08:43.858Z,23.44
2018-06-11T21:11:12.446Z,23.37
2018-06-11T21:13:41.037Z,23.37
2018-06-11T21:16:09.627Z,23.31
2018-06-11T21:18:38.333Z,23.24
2018-06-11T21:21:07.019Z,23.32
2018-06-11T21:23:35.724Z,23.32
2018-06-11T21:26:04.360Z,23.11
2018-06-11T21:28:33.000Z,23.15
2018-06-11T21:31:01.596Z,23.11
2018-06-11T21:33:30.153Z,23.15
2018-06-11T21:35:58.776Z,23.04
2018-06-11T21:38:27.327Z,23.06
2018-06-11T21:40:55.949Z,23.14
2018-06-11T21:43:24.606Z,22.76
2018-06-11T21:45:53.319Z,22.44
2018-06-11T21:48:21.873Z,22.40
2018-06-11T21:50:50.527Z,22.27
2018-06-11T21:53:19.096Z,22.01
2018-06-11T21:55:47.696Z,22.07
2018-06-11T21:58:16.228Z,22.03
2018-06-11T22:00:45.585Z,21.96
2018-06-11T22:03:14.345Z,21.87
2018-06-11T22:05:42.866Z,21.84
2018-06-11T22:08:11.455Z,21.76
2018-06-11T22:10:40.009Z,21.63
2018-06-11T22:13:08.613Z,21.58
2018-06-11T22:15:37.171Z,21.62
2018-06-11T22:18:05.856Z,21.64
2018-06-11T22:20:34.409Z,21.67
2018-06-11T22:23:03.011Z,21.68
2018-06-11T22:25:31.679Z,21.62
2018-06-11T22:28:00.299Z,21.49
2018-06-11T22:30:29.000Z,21.58
2018-06-11T22:32:57.540Z,21.56
2018-06-11T22:35:26.108Z,21.60
2018-06-11T22:37:54.698Z,21.45
2018-06-11T22:40:23.263Z,21.51
2018-06-11T22:42:51.848Z,21.32
2018-06-11T22:45:20.403Z,21.25
2018-06-11T22:47:48.958Z,21.18
2018-06-11T22:50:17.540Z,21.17
2018-06-11T22:52:46.097Z,21.23
2018-06-11T22:55:14.687Z,21.32
2018-06-11T22:57:43.228Z,21.36
2018-06-11T23:00:12.068Z,21.36
2018-06-11T23:02:40.616Z,21.35
2018-06-11T23:05:09.238Z,21.30
2018-06-11T23:07:37.771Z,21.31
2018-06-11T23:10:06.391Z,21.27
2018-06-11T23:12:35.172Z,21.34
2018-06-11T23:15:03.788Z,21.34
2018-06-11T23:17:32.340Z,21.38
2018-06-11T23:20:00.909Z,21.37
2018-06-11T23:22:29.480Z,21.25
2018-06-11T23:24:58.292Z,21.10
2018-06-11T23:27:26.860Z,21.02
2018-06-11T23:29:55.804Z,21.07
2018-06-11T23:32:24.357Z,21.02
2018-06-11T23:34:52.920Z,20.97
2018-06-11T23:37:21.634Z,20.99
2018-06-11T23:39:50.196Z,20.93
2018-06-11T23:42:18.838Z,20.78
2018-06-11T23:44:47.378Z,20.69
2018-06-11T23:47:16.016Z,20.66
2018-06-11T23:49:44.646Z,20.73
2018-06-11T23:52:13.234Z,20.73
2018-06-11T23:54:41.764Z,20.65
2018-06-11T23:57:10.440Z,20.71
2018-06-11T23:59:39.197Z,20.62
